PWSweather.com
Personal Weather Stations
Station Observations
BAJUZ
LucenecSK 984 01

LucenecSK 984 01

Lat: 48.335803055476, Lon: 19.645267948508

Elevation: 771

Station Type: Davis

http://meteolc.sk

High Low Average
Temperature 36.9°F2.7°F 21.7°F-5.7°F 28.2°F-2.1°F
Dew Point 29.7°F-1.3°F 19.5°F-6.9°F 25.0°F-3.9°F
Winds 2.0 mph SE3.2 mph SE Calm Calm 0.2 mph 0.3 mph
Wind Gusts 8.0 mph12.9 mph -- 1.5 mph2.4 mph
Humidity 93% 75% 88%
Pressure 30.47 in1031.80 in 30.08 in1018.60 in -
Precipitation 0.12 in3.00 in - -
Hour Temp Dew Point Humidity Winds Wind Gusts Pressure Precip Precip Rate Daily Precip Total
12:00 AM 21.7°F-5.7°C 19.5°F-6.9°C 91% Calm Calm 1.0 mph1.6 kmh 30.09 in1019.0 mb 0.00 in0.0 mm 0.00 in0.0 mm 0.00 in0.0 mm
12:15 AM 21.7°F-5.7°C 19.5°F-6.9°C 91% Calm Calm -- 30.08 in1018.6 mb 0.00 in0.0 mm 0.00 in0.0 mm 0.00 in0.0 mm
12:30 AM 21.9°F-5.6°C 19.7°F-6.8°C 91% Calm Calm -- 30.09 in1019.0 mb 0.00 in0.0 mm 0.00 in0.0 mm 0.00 in0.0 mm
12:45 AM 22.1°F-5.5°C 19.9°F-6.7°C 91% Calm Calm -- 30.09 in1019.0 mb 0.00 in0.0 mm 0.00 in0.0 mm 0.00 in0.0 mm
01:00 AM 21.9°F-5.6°C 19.7°F-6.8°C 91% Calm Calm -- 30.10 in1019.3 mb 0.00 in0.0 mm 0.00 in0.0 mm 0.00 in0.0 mm
01:15 AM 22.1°F-5.5°C 19.9°F-6.7°C 91% Calm Calm -- 30.11 in1019.6 mb 0.00 in0.0 mm 0.00 in0.0 mm 0.00 in0.0 mm
01:30 AM 22.1°F-5.5°C 19.9°F-6.7°C 91% Calm Calm -- 30.11 in1019.6 mb 0.00 in0.0 mm 0.00 in0.0 mm 0.00 in0.0 mm
01:45 AM 22.3°F-5.4°C 20.1°F-6.6°C 91% Calm Calm -- 30.11 in1019.6 mb 0.00 in0.0 mm 0.00 in0.0 mm 0.00 in0.0 mm
02:00 AM 22.5°F-5.3°C 20.2°F-6.6°C 91% Calm Calm -- 30.12 in1020.0 mb 0.00 in0.0 mm 0.00 in0.0 mm 0.00 in0.0 mm
02:15 AM 22.6°F-5.2°C 20.4°F-6.4°C 91% Calm Calm -- 30.12 in1020.0 mb 0.00 in0.0 mm 0.00 in0.0 mm 0.00 in0.0 mm
02:30 AM 22.8°F-5.1°C 20.6°F-6.3°C 91% Calm Calm -- 30.12 in1020.0 mb 0.00 in0.0 mm 0.00 in0.0 mm 0.00 in0.0 mm
02:45 AM 23.2°F-4.9°C 20.9°F-6.2°C 91% Calm Calm -- 30.12 in1020.0 mb 0.00 in0.0 mm 0.00 in0.0 mm 0.00 in0.0 mm
03:00 AM 23.4°F-4.8°C 21.1°F-6.1°C 91% Calm Calm -- 30.13 in1020.3 mb 0.00 in0.0 mm 0.00 in0.0 mm 0.00 in0.0 mm
03:15 AM 23.4°F-4.8°C 21.1°F-6.1°C 91% Calm Calm -- 30.13 in1020.3 mb 0.00 in0.0 mm 0.00 in0.0 mm 0.00 in0.0 mm
03:30 AM 23.4°F-4.8°C 21.1°F-6.1°C 91% Calm Calm -- 30.13 in1020.3 mb 0.00 in0.0 mm 0.00 in0.0 mm 0.00 in0.0 mm
03:45 AM 23.5°F-4.7°C 21.3°F-5.9°C 91% Calm Calm -- 30.14 in1020.7 mb 0.00 in0.0 mm 0.00 in0.0 mm 0.00 in0.0 mm
04:00 AM 23.4°F-4.8°C 21.1°F-6.1°C 91% Calm Calm -- 30.14 in1020.7 mb 0.00 in0.0 mm 0.00 in0.0 mm 0.00 in0.0 mm
04:15 AM 23.4°F-4.8°C 21.1°F-6.1°C 91% Calm Calm -- 30.15 in1021.0 mb 0.00 in0.0 mm 0.00 in0.0 mm 0.00 in0.0 mm
04:30 AM 23.5°F-4.7°C 21.3°F-5.9°C 91% Calm Calm -- 30.15 in1021.0 mb 0.00 in0.0 mm 0.00 in0.0 mm 0.00 in0.0 mm
04:45 AM 23.5°F-4.7°C 21.3°F-5.9°C 91% Calm Calm -- 30.16 in1021.3 mb 0.00 in0.0 mm 0.00 in0.0 mm 0.00 in0.0 mm
05:00 AM 23.7°F-4.6°C 21.5°F-5.8°C 91% Calm Calm -- 30.16 in1021.3 mb 0.00 in0.0 mm 0.00 in0.0 mm 0.00 in0.0 mm
05:15 AM 23.9°F-4.5°C 21.7°F-5.7°C 91% Calm Calm -- 30.16 in1021.3 mb 0.00 in0.0 mm 0.00 in0.0 mm 0.00 in0.0 mm
05:30 AM 24.1°F-4.4°C 22.1°F-5.5°C 92% Calm Calm -- 30.17 in1021.7 mb 0.00 in0.0 mm 0.00 in0.0 mm 0.00 in0.0 mm
05:45 AM 24.3°F-4.3°C 22.3°F-5.4°C 92% Calm Calm -- 30.18 in1022.0 mb 0.00 in0.0 mm 0.00 in0.0 mm 0.00 in0.0 mm
06:00 AM 24.3°F-4.3°C 22.3°F-5.4°C 92% Calm Calm -- 30.18 in1022.0 mb 0.00 in0.0 mm 0.00 in0.0 mm 0.00 in0.0 mm
06:15 AM 24.3°F-4.3°C 22.3°F-5.4°C 92% Calm Calm -- 30.19 in1022.4 mb 0.00 in0.0 mm 0.00 in0.0 mm 0.00 in0.0 mm
06:30 AM 24.3°F-4.3°C 22.3°F-5.4°C 92% Calm Calm -- 30.19 in1022.4 mb 0.00 in0.0 mm 0.00 in0.0 mm 0.00 in0.0 mm
06:45 AM 24.4°F-4.2°C 22.5°F-5.3°C 92% Calm Calm -- 30.19 in1022.4 mb 0.00 in0.0 mm 0.00 in0.0 mm 0.00 in0.0 mm
07:00 AM 24.6°F-4.1°C 22.6°F-5.2°C 92% Calm Calm -- 30.20 in1022.7 mb 0.00 in0.0 mm 0.00 in0.0 mm 0.00 in0.0 mm
07:15 AM 24.8°F-4.0°C 23.1°F-4.9°C 93% Calm Calm -- 30.21 in1023.0 mb 0.00 in0.0 mm 0.00 in0.0 mm 0.00 in0.0 mm
07:30 AM 24.8°F-4.0°C 23.1°F-4.9°C 93% Calm Calm -- 30.22 in1023.4 mb 0.00 in0.0 mm 0.00 in0.0 mm 0.00 in0.0 mm
07:45 AM 24.8°F-4.0°C 23.1°F-4.9°C 93% Calm Calm -- 30.22 in1023.4 mb 0.00 in0.0 mm 0.00 in0.0 mm 0.00 in0.0 mm
08:00 AM 24.6°F-4.1°C 22.6°F-5.2°C 92% Calm Calm -- 30.23 in1023.7 mb 0.00 in0.0 mm 0.00 in0.0 mm 0.00 in0.0 mm
08:15 AM 25.0°F-3.9°C 23.2°F-4.9°C 93% Calm Calm -- 30.23 in1023.7 mb 0.00 in0.0 mm 0.00 in0.0 mm 0.00 in0.0 mm
08:30 AM 25.7°F-3.5°C 24.0°F-4.4°C 93% Calm Calm -- 30.24 in1024.0 mb 0.00 in0.0 mm 0.00 in0.0 mm 0.00 in0.0 mm
08:45 AM 26.4°F-3.1°C 24.4°F-4.2°C 92% Calm Calm -- 30.25 in1024.4 mb 0.00 in0.0 mm 0.00 in0.0 mm 0.00 in0.0 mm
09:00 AM 27.0°F-2.8°C 24.7°F-4.1°C 91% Calm Calm -- 30.25 in1024.4 mb 0.00 in0.0 mm 0.00 in0.0 mm 0.00 in0.0 mm
09:15 AM 28.4°F-2.0°C 25.8°F-3.4°C 90% Calm Calm 1.0 mph1.6 kmh 30.26 in1024.7 mb 0.00 in0.0 mm 0.00 in0.0 mm 0.00 in0.0 mm
09:30 AM 28.8°F-1.8°C 25.9°F-3.4°C 89% Calm Calm 1.0 mph1.6 kmh 30.27 in1025.1 mb 0.01 in0.3 mm 0.04 in1.0 mm 0.01 in0.3 mm
09:45 AM 28.6°F-1.9°C 25.5°F-3.6°C 88% Calm Calm -- 30.27 in1025.1 mb 0.01 in0.3 mm 0.00 in0.0 mm 0.01 in0.3 mm
10:00 AM 29.1°F-1.6°C 26.3°F-3.2°C 89% Calm Calm 1.0 mph1.6 kmh 30.27 in1025.1 mb 0.01 in0.3 mm 0.00 in0.0 mm 0.01 in0.3 mm
10:15 AM 29.5°F-1.4°C 26.4°F-3.1°C 88% Calm Calm 3.0 mph4.8 kmh 30.28 in1025.4 mb 0.01 in0.3 mm 0.00 in0.0 mm 0.01 in0.3 mm
10:30 AM 28.8°F-1.8°C 25.1°F-3.8°C 86% 2.0 mph SE3.2 kmh SE 4.0 mph6.4 kmh 30.29 in1025.7 mb 0.00 in0.0 mm 0.00 in0.0 mm 0.01 in0.3 mm
10:45 AM 29.3°F-1.5°C 26.2°F-3.2°C 88% 1.0 mph SSE1.6 kmh SSE 4.0 mph6.4 kmh 30.29 in1025.7 mb 0.00 in0.0 mm 0.00 in0.0 mm 0.01 in0.3 mm
11:00 AM 30.4°F-0.9°C 26.1°F-3.3°C 84% 1.0 mph SSE1.6 kmh SSE 4.0 mph6.4 kmh 30.30 in1026.1 mb 0.01 in0.3 mm 0.01 in0.3 mm 0.02 in0.5 mm
11:15 AM 32.4°F0.2°C 28.1°F-2.2°C 84% 1.0 mph SSE1.6 kmh SSE 2.0 mph3.2 kmh 30.29 in1025.7 mb 0.01 in0.3 mm 0.00 in0.0 mm 0.02 in0.5 mm
11:30 AM 33.3°F0.7°C 28.4°F-2.0°C 82% 1.0 mph SSE1.6 kmh SSE 4.0 mph6.4 kmh 30.30 in1026.1 mb 0.01 in0.3 mm 0.00 in0.0 mm 0.02 in0.5 mm
11:45 AM 33.1°F0.6°C 27.9°F-2.3°C 81% 2.0 mph SSE3.2 kmh SSE 5.0 mph8.0 kmh 30.30 in1026.1 mb 0.01 in0.3 mm 0.00 in0.0 mm 0.02 in0.5 mm
12:00 PM 33.4°F0.8°C 27.9°F-2.3°C 80% 1.0 mph SSE1.6 kmh SSE 4.0 mph6.4 kmh 30.31 in1026.4 mb 0.00 in0.0 mm 0.00 in0.0 mm 0.02 in0.5 mm
12:15 PM 34.5°F1.4°C 28.4°F-2.0°C 78% 1.0 mph SSE1.6 kmh SSE 4.0 mph6.4 kmh 30.31 in1026.4 mb 0.00 in0.0 mm 0.00 in0.0 mm 0.02 in0.5 mm
12:30 PM 35.4°F1.9°C 28.9°F-1.7°C 77% 1.0 mph SSE1.6 kmh SSE 5.0 mph8.0 kmh 30.31 in1026.4 mb 0.00 in0.0 mm 0.00 in0.0 mm 0.02 in0.5 mm
12:45 PM 36.1°F2.3°C 29.6°F-1.3°C 77% Calm Calm 5.0 mph8.0 kmh 30.31 in1026.4 mb 0.01 in0.3 mm 0.04 in1.0 mm 0.02 in0.5 mm
01:00 PM 36.3°F2.4°C 29.5°F-1.4°C 76% Calm Calm 2.0 mph3.2 kmh 30.30 in1026.1 mb 0.01 in0.3 mm 0.00 in0.0 mm 0.02 in0.5 mm
01:15 PM 36.9°F2.7°C 29.7°F-1.3°C 75% Calm Calm 2.0 mph3.2 kmh 30.30 in1026.1 mb 0.01 in0.3 mm 0.00 in0.0 mm 0.02 in0.5 mm
01:30 PM 36.7°F2.6°C 29.5°F-1.4°C 75% 1.0 mph WSW1.6 kmh WSW 4.0 mph6.4 kmh 30.31 in1026.4 mb 0.01 in0.3 mm 0.00 in0.0 mm 0.02 in0.5 mm
01:45 PM 36.1°F2.3°C 29.0°F-1.7°C 75% 1.0 mph WSW1.6 kmh WSW 7.0 mph11.3 kmh 30.31 in1026.4 mb 0.00 in0.0 mm 0.00 in0.0 mm 0.02 in0.5 mm
02:00 PM 35.8°F2.1°C 29.3°F-1.5°C 77% Calm Calm 7.0 mph11.3 kmh 30.31 in1026.4 mb 0.00 in0.0 mm 0.00 in0.0 mm 0.02 in0.5 mm
02:15 PM 35.8°F2.1°C 29.3°F-1.5°C 77% 1.0 mph WNW1.6 kmh WNW 8.0 mph12.9 kmh 30.31 in1026.4 mb 0.00 in0.0 mm 0.00 in0.0 mm 0.02 in0.5 mm
02:30 PM 35.2°F1.8°C 29.1°F-1.6°C 78% 1.0 mph WNW1.6 kmh WNW 3.0 mph4.8 kmh 30.32 in1026.8 mb 0.00 in0.0 mm 0.00 in0.0 mm 0.02 in0.5 mm
02:45 PM 34.9°F1.6°C 28.7°F-1.8°C 78% Calm Calm 6.0 mph9.7 kmh 30.33 in1027.1 mb 0.00 in0.0 mm 0.00 in0.0 mm 0.02 in0.5 mm
03:00 PM 34.3°F1.3°C 28.5°F-1.9°C 79% 1.0 mph SW1.6 kmh SW 7.0 mph11.3 kmh 30.33 in1027.1 mb 0.00 in0.0 mm 0.00 in0.0 mm 0.02 in0.5 mm
03:15 PM 34.2°F1.2°C 28.6°F-1.9°C 80% 1.0 mph W1.6 kmh W 7.0 mph11.3 kmh 30.34 in1027.4 mb 0.00 in0.0 mm 0.00 in0.0 mm 0.02 in0.5 mm
03:30 PM 34.2°F1.2°C 28.9°F-1.7°C 81% Calm Calm 1.0 mph1.6 kmh 30.34 in1027.4 mb 0.00 in0.0 mm 0.00 in0.0 mm 0.02 in0.5 mm
03:45 PM 33.6°F0.9°C 28.7°F-1.8°C 82% Calm Calm 1.0 mph1.6 kmh 30.35 in1027.8 mb 0.00 in0.0 mm 0.00 in0.0 mm 0.02 in0.5 mm
04:00 PM 33.3°F0.7°C 28.7°F-1.8°C 83% Calm Calm -- 30.35 in1027.8 mb 0.00 in0.0 mm 0.00 in0.0 mm 0.02 in0.5 mm
04:15 PM 32.9°F0.5°C 28.6°F-1.9°C 84% Calm Calm 1.0 mph1.6 kmh 30.35 in1027.8 mb 0.00 in0.0 mm 0.00 in0.0 mm 0.02 in0.5 mm
04:30 PM 32.5°F0.3°C 28.2°F-2.1°C 84% Calm Calm 1.0 mph1.6 kmh 30.36 in1028.1 mb 0.00 in0.0 mm 0.00 in0.0 mm 0.02 in0.5 mm
04:45 PM 32.4°F0.2°C 28.4°F-2.0°C 85% Calm Calm -- 30.36 in1028.1 mb 0.00 in0.0 mm 0.00 in0.0 mm 0.02 in0.5 mm
05:00 PM 32.0°F0.0°C 28.0°F-2.2°C 85% Calm Calm 4.0 mph6.4 kmh 30.36 in1028.1 mb 0.00 in0.0 mm 0.00 in0.0 mm 0.02 in0.5 mm
05:15 PM 31.8°F-0.1°C 28.1°F-2.2°C 86% Calm Calm 6.0 mph9.7 kmh 30.37 in1028.4 mb 0.00 in0.0 mm 0.00 in0.0 mm 0.02 in0.5 mm
05:30 PM 31.6°F-0.2°C 27.9°F-2.3°C 86% Calm Calm 1.0 mph1.6 kmh 30.38 in1028.8 mb 0.00 in0.0 mm 0.00 in0.0 mm 0.02 in0.5 mm
05:45 PM 31.5°F-0.3°C 28.0°F-2.2°C 87% Calm Calm 2.0 mph3.2 kmh 30.38 in1028.8 mb 0.00 in0.0 mm 0.00 in0.0 mm 0.02 in0.5 mm
06:00 PM 31.5°F-0.3°C 28.0°F-2.2°C 87% Calm Calm 1.0 mph1.6 kmh 30.39 in1029.1 mb 0.00 in0.0 mm 0.00 in0.0 mm 0.02 in0.5 mm
06:15 PM 31.3°F-0.4°C 27.9°F-2.3°C 87% Calm Calm 1.0 mph1.6 kmh 30.39 in1029.1 mb 0.00 in0.0 mm 0.00 in0.0 mm 0.02 in0.5 mm
06:30 PM 30.9°F-0.6°C 27.8°F-2.3°C 88% Calm Calm 5.0 mph8.0 kmh 30.39 in1029.1 mb 0.00 in0.0 mm 0.00 in0.0 mm 0.02 in0.5 mm
06:45 PM 30.7°F-0.7°C 27.6°F-2.4°C 88% Calm Calm 1.0 mph1.6 kmh 30.39 in1029.1 mb 0.00 in0.0 mm 0.00 in0.0 mm 0.02 in0.5 mm
07:00 PM 30.4°F-0.9°C 27.3°F-2.6°C 88% Calm Calm -- 30.40 in1029.5 mb 0.00 in0.0 mm 0.00 in0.0 mm 0.02 in0.5 mm
07:15 PM 30.2°F-1.0°C 27.3°F-2.6°C 89% Calm Calm 1.0 mph1.6 kmh 30.41 in1029.8 mb 0.00 in0.0 mm 0.00 in0.0 mm 0.02 in0.5 mm
07:30 PM 29.7°F-1.3°C 26.8°F-2.9°C 89% Calm Calm -- 30.41 in1029.8 mb 0.00 in0.0 mm 0.00 in0.0 mm 0.02 in0.5 mm
07:45 PM 28.9°F-1.7°C 26.4°F-3.1°C 90% Calm Calm 1.0 mph1.6 kmh 30.41 in1029.8 mb 0.00 in0.0 mm 0.00 in0.0 mm 0.02 in0.5 mm
08:00 PM 28.8°F-1.8°C 26.2°F-3.2°C 90% Calm Calm -- 30.42 in1030.1 mb 0.00 in0.0 mm 0.00 in0.0 mm 0.02 in0.5 mm
08:15 PM 28.6°F-1.9°C 26.3°F-3.2°C 91% Calm Calm -- 30.43 in1030.5 mb 0.00 in0.0 mm 0.00 in0.0 mm 0.02 in0.5 mm
08:30 PM 28.6°F-1.9°C 26.3°F-3.2°C 91% Calm Calm 1.0 mph1.6 kmh 30.43 in1030.5 mb 0.00 in0.0 mm 0.00 in0.0 mm 0.02 in0.5 mm
08:45 PM 28.4°F-2.0°C 26.1°F-3.3°C 91% Calm Calm -- 30.43 in1030.5 mb 0.00 in0.0 mm 0.00 in0.0 mm 0.02 in0.5 mm
09:00 PM 28.2°F-2.1°C 25.9°F-3.4°C 91% Calm Calm 1.0 mph1.6 kmh 30.43 in1030.5 mb 0.00 in0.0 mm 0.00 in0.0 mm 0.02 in0.5 mm
09:15 PM 27.9°F-2.3°C 25.6°F-3.6°C 91% Calm Calm 1.0 mph1.6 kmh 30.44 in1030.8 mb 0.00 in0.0 mm 0.00 in0.0 mm 0.02 in0.5 mm
09:30 PM 27.3°F-2.6°C 25.0°F-3.9°C 91% Calm Calm 1.0 mph1.6 kmh 30.44 in1030.8 mb 0.00 in0.0 mm 0.00 in0.0 mm 0.02 in0.5 mm
09:45 PM 27.0°F-2.8°C 24.7°F-4.1°C 91% Calm Calm 1.0 mph1.6 kmh 30.45 in1031.2 mb 0.00 in0.0 mm 0.00 in0.0 mm 0.02 in0.5 mm
10:00 PM 26.2°F-3.2°C 24.2°F-4.3°C 92% Calm Calm 1.0 mph1.6 kmh 30.44 in1030.8 mb 0.00 in0.0 mm 0.00 in0.0 mm 0.02 in0.5 mm
10:15 PM 26.2°F-3.2°C 24.5°F-4.2°C 93% 2.0 mph WNW3.2 kmh WNW 7.0 mph11.3 kmh 30.45 in1031.2 mb 0.00 in0.0 mm 0.00 in0.0 mm 0.02 in0.5 mm
10:30 PM 25.9°F-3.4°C 23.9°F-4.5°C 92% Calm Calm -- 30.45 in1031.2 mb 0.00 in0.0 mm 0.00 in0.0 mm 0.02 in0.5 mm
10:45 PM 25.9°F-3.4°C 24.1°F-4.4°C 93% Calm Calm 1.0 mph1.6 kmh 30.46 in1031.5 mb 0.00 in0.0 mm 0.00 in0.0 mm 0.02 in0.5 mm
11:00 PM 25.9°F-3.4°C 24.1°F-4.4°C 93% Calm Calm -- 30.46 in1031.5 mb 0.00 in0.0 mm 0.00 in0.0 mm 0.02 in0.5 mm
11:15 PM 26.1°F-3.3°C 24.3°F-4.3°C 93% Calm Calm 1.0 mph1.6 kmh 30.46 in1031.5 mb 0.00 in0.0 mm 0.00 in0.0 mm 0.02 in0.5 mm
11:30 PM 26.4°F-3.1°C 24.7°F-4.1°C 93% Calm Calm 1.0 mph1.6 kmh 30.47 in1031.8 mb 0.00 in0.0 mm 0.00 in0.0 mm 0.02 in0.5 mm
11:45 PM 26.6°F-3.0°C 24.8°F-4.0°C 93% Calm Calm -- 30.47 in1031.8 mb 0.00 in0.0 mm 0.00 in0.0 mm 0.02 in0.5 mm